MET1146 - Portland to Ontario

Boeing 737-200
711MT
2 hrs 00 mins
730 nm
Scheduled - M

Bid/PiRep Status

Bid was submitted on Dec 28 2016.

PiRep # 74542: Approved by Dave Nichols on January 1st, 2017 4:06 UTC

Departure

Departing from
Portland (PDX)
Departure gate
Scheduled Departure
GMT 1930
Local 1230
METAR KPDX 222353Z 31007KT 10SM SCT035 BKN090 BKN200 06/02 A3019 RMK AO2 SLP222 T00560022 10072 20011 55006
TAF KPDX 222332Z 2300/2324 30006KT P6SM -SHRAGS SCT035 BKN050 BKN100 FM230300 29004KT P6SM SCT035 BKN060 FM230700 00000KT 6SM BCFG FEW001 SCT045 FM231000 00000KT 1/4SM FG VV002 FM231900 00000KT 3SM BR BKN005 FM232000 27005KT P6SM VCSH SCT020 SCT040
  • No charts available

Arrival

Arriving at
Ontario (ONT)
Arrival gate
Scheduled Arrival
GMT 2130
Local 1430
METAR KONT 222353Z 21014KT 10SM SCT050 15/05 A3001 RMK AO2 SLP158 T01500050 10167 20133 56015
TAF KONT 230020Z 2300/2406 22012KT P6SM SCT050 FM230100 24012KT P6SM VCSH SCT050 FM230300 VRB06KT P6SM VCSH SCT050 FM230600 VRB06KT P6SM SKC FM231900 29012KT P6SM SKC FM240500 VRB05KT P6SM SKC

Route Map

Planning Resources

LHV J5 EHF ZIGGY4
KPDX POWEL LKV HARTT PYRAM FMG TILTS SONNY TIOGA PINNI EHF KONT
KDPX BTG LKV HARTT PYRAM FMG TILTS SONNY TIOGA PINNI EHF ZIGGY KONT
RIVER6 BTG J189 AVE EHF ZIGGY4
KPDX DCT URBIA V165 LKV J5 EHF STAR KONT
Route:
OFP Layout:
Units:
Detailed Navlog:
ETOPS Planning:
Plan Stepclimbs:
Runway Analysis:
Include NOTAMS:
FIR NOTAMS:
Flight Maps:

Return Flights

MET4435
Embraer ERJ-145LR
1500 GMT
MET4437
Embraer ERJ-145LR
2330 GMT

Popularity

Hub Current Bids PiReps this month Total PiReps
KMCI 0 0 3
KLAX 0 0 2
KBOS 0 0 0